Time;durP1;ratioP1;P1;durP2;ratioP2;P2;SDS_P1;SDS_P2;PMS_P1;PMS_P2;Temp;Humidity;BMP_temperature;BMP_pressure;BME280_temperature;BME280_humidity;BME280_pressure;Samples;Min_cycle;Max_cycle;Signal;HPM_P1;HPM_P2
2022/01/22 00:00:30;;;;;;;;;28.25;21.00;;;;;6.02;61.68;102925.81;4959125;28;68993;-64
2022/01/22 00:02:55;;;;;;;;;29.25;24.00;;;;;6.02;61.57;102920.59;4941970;28;58125;-62
2022/01/22 00:05:21;;;;;;;;;25.75;20.75;;;;;6.02;61.94;102919.78;4941477;28;69624;-63
2022/01/22 00:07:46;;;;;;;;;22.50;18.25;;;;;6.01;61.89;102918.91;4926554;28;45391;-63
2022/01/22 00:10:14;;;;;;;;;23.75;19.50;;;;;6.03;61.91;102905.81;4958717;28;73572;-63
2022/01/22 00:15:15;;;;;;;;;28.25;22.00;;;;;6.03;62.10;102901.44;4943227;28;45307;-63
2022/01/22 00:17:40;;;;;;;;;28.25;22.25;;;;;6.04;62.00;102899.69;4959762;28;45583;-64
2022/01/22 00:20:06;;;;;;;;;33.75;24.50;;;;;6.03;61.91;102906.66;4926294;28;45580;-63
2022/01/22 00:22:34;;;;;;;;;28.25;26.00;;;;;6.05;62.18;102904.03;4926099;28;45932;-63
2022/01/22 00:25:01;;;;;;;;;29.00;24.00;;;;;6.04;62.03;102891.88;4959205;28;45443;-62
2022/01/22 00:27:27;;;;;;;;;29.75;22.25;;;;;6.06;61.94;102901.34;4959626;28;45205;-63
2022/01/22 00:29:52;;;;;;;;;35.25;24.75;;;;;6.05;62.13;102889.19;4959338;28;46803;-64
2022/01/22 00:32:18;;;;;;;;;26.50;24.25;;;;;6.06;62.02;102887.47;4941376;28;64404;-63
2022/01/22 00:34:43;;;;;;;;;29.25;24.00;;;;;6.06;62.18;102888.28;4941486;28;55344;-63
2022/01/22 00:37:09;;;;;;;;;24.50;21.75;;;;;6.05;62.20;102883.97;4958901;28;56899;-63
2022/01/22 00:39:34;;;;;;;;;29.75;26.75;;;;;6.05;62.47;102881.38;4959331;28;46501;-62
2022/01/22 00:42:01;;;;;;;;;23.00;23.00;;;;;6.07;62.35;102883.94;4959051;28;45381;-63
2022/01/22 00:44:27;;;;;;;;;29.00;25.00;;;;;6.07;62.41;102887.41;4941882;28;45353;-62
2022/01/22 00:46:52;;;;;;;;;34.00;28.25;;;;;6.08;62.24;102886.50;4942041;28;45506;-61
2022/01/22 00:49:18;;;;;;;;;22.75;20.00;;;;;6.08;62.25;102899.53;4941244;28;60546;-64
2022/01/22 00:51:43;;;;;;;;;32.00;27.00;;;;;6.07;62.41;102897.84;4925513;28;45438;-61
2022/01/22 00:54:09;;;;;;;;;31.50;25.50;;;;;6.07;62.32;102897.84;4958263;28;65418;-63
2022/01/22 00:56:34;;;;;;;;;28.75;24.75;;;;;6.07;62.51;102890.00;4958587;28;52616;-60
2022/01/22 00:58:59;;;;;;;;;32.25;26.50;;;;;6.08;62.44;102888.25;4940355;28;62073;-64
2022/01/22 01:01:25;;;;;;;;;28.50;25.25;;;;;6.06;62.45;102890.91;4940497;28;70167;-62
2022/01/22 01:03:50;;;;;;;;;29.25;26.50;;;;;6.06;62.48;102890.06;4940756;28;62300;-62
2022/01/22 01:06:15;;;;;;;;;30.75;23.75;;;;;6.06;62.37;102892.69;4958584;28;45237;-60
2022/01/22 01:08:42;;;;;;;;;31.25;24.75;;;;;6.07;62.38;102876.13;4957919;28;66552;-65
2022/01/22 01:11:10;;;;;;;;;28.25;25.25;;;;;6.07;62.28;102892.63;4941533;28;45433;-64
2022/01/22 01:13:41;;;;;;;;;31.25;26.50;;;;;6.08;62.24;102889.09;4925790;28;45532;-63
2022/01/22 01:32:27;;;;;;;;;21.50;18.75;;;;;6.06;62.16;102870.03;4943684;28;45907;-63
2022/01/22 01:34:53;;;;;;;;;22.00;17.50;;;;;6.06;62.30;102877.84;4942175;28;45457;-63
2022/01/22 01:37:19;;;;;;;;;26.50;19.50;;;;;6.06;62.35;102877.84;4958299;28;45390;-63
2022/01/22 01:39:47;;;;;;;;;28.25;22.25;;;;;6.07;62.34;102876.97;4941087;28;45617;-65
2022/01/22 01:42:20;;;;;;;;;21.25;19.00;;;;;6.08;62.40;102876.06;4958232;28;45334;-63
2022/01/22 01:44:46;;;;;;;;;25.25;23.00;;;;;6.12;62.12;102873.34;4942397;28;45402;-63
2022/01/22 01:47:14;;;;;;;;;27.50;23.00;;;;;6.12;62.23;102870.72;4940897;28;45275;-62
2022/01/22 01:49:40;;;;;;;;;26.00;21.00;;;;;6.13;62.02;102872.44;4958011;28;46052;-62
2022/01/22 01:52:07;;;;;;;;;22.25;18.50;;;;;6.12;62.68;102876.78;4957901;28;45313;-62
2022/01/22 01:55:00;;;;;;;;;25.00;21.00;;;;;6.14;62.17;102884.59;4958286;28;45275;-62
2022/01/22 01:57:59;;;;;;;;;19.75;18.00;;;;;6.15;62.21;102881.06;4958212;28;45221;-62
2022/01/22 02:00:23;;;;;;;;;20.25;19.00;;;;;6.15;62.16;102888.91;4928903;28;46742;-62
2022/01/22 02:02:48;;;;;;;;;22.00;17.75;;;;;6.16;62.21;102882.78;4940499;28;49339;-63
2022/01/22 02:05:15;;;;;;;;;23.25;20.50;;;;;6.17;62.22;102876.66;4958014;28;45251;-62
2022/01/22 02:07:41;;;;;;;;;18.75;14.25;;;;;6.16;62.16;102875.78;4940572;28;45243;-64
2022/01/22 02:10:08;;;;;;;;;18.25;16.25;;;;;6.18;62.22;102879.22;4956523;28;45462;-63
2022/01/22 02:23:46;;;;;;;;;23.25;15.75;;;;;6.22;62.38;102879.97;4957583;28;45910;-62
2022/01/22 02:26:12;;;;;;;;;20.00;15.50;;;;;6.22;62.30;102877.38;4957690;28;45362;-63
2022/01/22 02:28:38;;;;;;;;;22.00;16.25;;;;;6.23;62.50;102871.25;4957729;28;45235;-61
2022/01/22 02:31:17;;;;;;;;;21.00;17.75;;;;;6.25;62.40;102861.63;4939397;28;66594;-62
2022/01/22 02:39:19;;;;;;;;;18.25;14.50;;;;;6.25;62.28;102864.22;4957503;28;45457;-62
2022/01/22 02:41:47;;;;;;;;;17.50;15.25;;;;;6.25;62.30;102864.22;4956960;28;46546;-61
2022/01/22 02:44:21;;;;;;;;;16.75;10.00;;;;;6.24;62.24;102857.28;4957106;28;45270;-61
2022/01/22 02:46:48;;;;;;;;;16.25;12.25;;;;;6.26;62.39;102855.50;4941556;28;45469;-61
2022/01/22 02:49:15;;;;;;;;;14.50;12.25;;;;;6.27;62.47;102858.94;4940153;28;45813;-62
2022/01/22 02:51:41;;;;;;;;;9.50;9.25;;;;;6.27;62.43;102861.53;4956789;28;45684;-64
2022/01/22 02:54:06;;;;;;;;;12.50;12.00;;;;;6.28;62.32;102852.81;4957166;28;45282;-63
2022/01/22 02:56:31;;;;;;;;;20.75;16.75;;;;;6.28;62.21;102852.81;4957133;28;45243;-64
2022/01/22 02:58:59;;;;;;;;;12.75;12.25;;;;;6.28;62.12;102848.47;4956399;28;60294;-62
2022/01/22 03:01:24;;;;;;;;;15.50;14.00;;;;;6.26;62.04;102852.88;4956907;28;45649;-61
2022/01/22 03:03:50;;;;;;;;;15.25;14.50;;;;;6.26;62.29;102852.88;4939568;28;45326;-61
2022/01/22 03:06:15;;;;;;;;;15.75;12.00;;;;;6.27;62.36;102851.09;4956586;28;56560;-61
2022/01/22 03:08:42;;;;;;;;;13.75;12.50;;;;;6.28;62.22;102853.69;4923624;28;45317;-60
2022/01/22 03:11:18;;;;;;;;;16.50;12.75;;;;;6.29;62.36;102849.28;4939460;28;46354;-61
2022/01/22 03:16:28;;;;;;;;;14.50;13.25;;;;;6.28;62.34;102853.69;4939559;28;45303;-65
2022/01/22 03:29:18;;;;;;;;;18.75;13.75;;;;;6.27;62.55;102859.81;4960424;28;45319;-60
2022/01/22 03:31:43;;;;;;;;;15.00;13.25;;;;;6.27;62.59;102857.19;4960079;28;46351;-61
2022/01/22 03:34:09;;;;;;;;;21.75;16.75;;;;;6.28;62.66;102873.69;4926757;28;45297;-60
2022/01/22 03:36:35;;;;;;;;;19.25;15.75;;;;;6.29;62.59;102872.78;4960245;28;45397;-62
2022/01/22 03:39:05;;;;;;;;;13.50;11.25;;;;;6.28;62.80;102873.69;4960100;28;45551;-61
2022/01/22 03:41:31;;;;;;;;;14.25;12.50;;;;;6.29;62.87;102878.88;4959674;28;48320;-62
2022/01/22 03:43:56;;;;;;;;;16.25;15.25;;;;;6.31;62.88;102881.44;4960037;28;45251;-63
2022/01/22 03:46:21;;;;;;;;;14.75;12.00;;;;;6.32;63.04;102876.19;4942542;28;45922;-63
2022/01/22 03:48:47;;;;;;;;;14.75;11.00;;;;;6.33;62.82;102877.88;4960056;28;45605;-62
2022/01/22 03:51:12;;;;;;;;;16.50;13.50;;;;;6.34;62.84;102876.97;4959642;28;48433;-62
2022/01/22 03:53:37;;;;;;;;;15.25;10.25;;;;;6.34;62.82;102876.13;4942510;28;45461;-62
2022/01/22 03:56:05;;;;;;;;;10.50;8.00;;;;;6.33;62.58;102872.66;4926006;28;56196;-61
2022/01/22 03:58:34;;;;;;;;;12.00;10.00;;;;;6.33;62.37;102872.66;4942942;28;45248;-62
2022/01/22 04:03:56;;;;;;;;;8.00;5.75;;;;;6.33;62.37;102863.97;4948450;28;45836;-63
2022/01/22 04:07:01;;;;;;;;;8.50;8.00;;;;;6.32;62.48;102865.72;4942210;28;45263;-63
2022/01/22 04:09:18;;;;;;;;;9.00;8.50;;;;;6.31;62.14;102861.41;4959442;28;45281;-62
2022/01/22 04:11:45;;;;;;;;;13.50;10.00;;;;;6.28;62.09;102861.50;4942434;28;46285;-63
2022/01/22 04:14:19;;;;;;;;;15.00;8.00;;;;;6.27;62.18;102857.19;4942383;28;45963;-61
2022/01/22 04:17:01;;;;;;;;;9.50;7.75;;;;;6.26;62.46;102860.72;4927260;28;45307;-61
2022/01/22 04:24:55;;;;;;;;;10.75;9.00;;;;;6.26;62.29;102855.50;4959553;28;45859;-62
2022/01/22 04:27:26;;;;;;;;;9.75;8.00;;;;;6.24;62.30;102849.47;4942276;28;45345;-63
2022/01/22 04:29:54;;;;;;;;;15.50;9.00;;;;;6.24;62.53;102852.06;4942935;28;45464;-62
2022/01/22 04:32:19;;;;;;;;;11.00;10.25;;;;;6.24;62.38;102855.53;4941848;28;45458;-61
2022/01/22 04:34:45;;;;;;;;;13.00;11.00;;;;;6.23;62.43;102850.38;4958418;28;45480;-62
2022/01/22 04:37:10;;;;;;;;;12.25;10.00;;;;;6.24;62.41;102852.06;4942019;28;45426;-63
2022/01/22 04:39:36;;;;;;;;;12.25;10.25;;;;;6.23;62.49;102855.59;4959285;28;45508;-61
2022/01/22 04:42:03;;;;;;;;;14.25;11.25;;;;;6.21;62.59;102850.41;4958975;28;46316;-62
2022/01/22 04:44:33;;;;;;;;;14.25;11.00;;;;;6.19;62.80;102853.97;4941825;28;45434;-61
2022/01/22 04:47:31;;;;;;;;;15.00;15.00;;;;;6.17;62.54;102848.78;4959253;28;45331;-63
2022/01/22 04:52:40;;;;;;;;;18.50;15.25;;;;;6.15;62.79;102850.59;4958763;28;45343;-64
2022/01/22 04:55:06;;;;;;;;;14.75;11.25;;;;;6.16;62.69;102849.69;4941525;28;45328;-62
2022/01/22 04:57:39;;;;;;;;;19.25;15.25;;;;;6.13;62.82;102841.97;4959028;28;45455;-61
2022/01/22 05:00:13;;;;;;;;;17.75;15.00;;;;;6.14;62.76;102854.09;4941355;28;45269;-62
2022/01/22 05:02:39;;;;;;;;;16.50;15.50;;;;;6.15;62.70;102852.38;4941309;28;46574;-63
2022/01/22 05:05:05;;;;;;;;;21.25;16.00;;;;;6.15;62.74;102857.59;4958932;28;45432;-63
2022/01/22 05:07:30;;;;;;;;;19.50;16.75;;;;;6.16;62.75;102856.69;4941501;28;45415;-62
2022/01/22 05:09:56;;;;;;;;;27.75;20.50;;;;;6.14;62.90;102864.53;4958728;28;45339;-61
2022/01/22 05:12:21;;;;;;;;;21.25;17.00;;;;;6.14;63.01;102853.28;4925019;28;47478;-61
2022/01/22 05:14:46;;;;;;;;;29.50;17.75;;;;;6.13;63.02;102857.63;4941208;28;45450;-63
2022/01/22 05:17:12;;;;;;;;;24.00;18.75;;;;;6.15;62.95;102857.59;4957867;28;66161;-63
2022/01/22 05:22:17;;;;;;;;;19.25;17.00;;;;;6.16;63.01;102860.13;4958400;28;45326;-64
2022/01/22 05:24:47;;;;;;;;;17.00;15.00;;;;;6.17;62.98;102853.16;4926397;28;46124;-65
2022/01/22 05:27:32;;;;;;;;;22.75;18.25;;;;;6.18;63.03;102857.50;4958468;28;45263;-64
2022/01/22 05:30:07;;;;;;;;;23.25;17.00;;;;;6.18;62.92;102860.94;4941071;28;45249;-63
2022/01/22 05:33:28;;;;;;;;;21.75;15.25;;;;;6.20;63.26;102866.97;4942173;28;45435;-61
2022/01/22 05:38:05;;;;;;;;;22.25;19.25;;;;;6.20;63.18;102876.56;4930253;28;45454;-61
2022/01/22 05:40:31;;;;;;;;;18.75;17.25;;;;;6.20;63.18;102874.78;4940873;28;45502;-62
2022/01/22 05:42:56;;;;;;;;;18.50;16.50;;;;;6.20;62.95;102877.41;4957974;28;45434;-61
2022/01/22 05:45:21;;;;;;;;;21.75;17.75;;;;;6.21;63.16;102880.88;4939847;28;64487;-64
2022/01/22 05:47:47;;;;;;;;;27.00;18.25;;;;;6.22;63.14;102879.97;4940098;28;62986;-61
2022/01/22 05:50:25;;;;;;;;;18.50;18.50;;;;;6.22;63.13;102877.38;4958296;28;45504;-63
2022/01/22 05:52:58;;;;;;;;;18.50;17.25;;;;;6.24;63.17;102881.63;4940257;28;47221;-62
2022/01/22 06:00:33;;;;;;;;;20.25;15.25;;;;;6.23;63.24;102881.69;4958112;28;45272;-63
2022/01/22 06:02:58;;;;;;;;;18.25;16.50;;;;;6.25;63.13;102890.34;4957672;28;46231;-63
2022/01/22 06:05:24;;;;;;;;;22.50;17.50;;;;;6.23;63.32;102881.69;4956938;28;67045;-62
2022/01/22 06:07:49;;;;;;;;;24.75;17.50;;;;;6.25;63.09;102885.09;4956963;28;62908;-62
2022/01/22 06:10:20;;;;;;;;;19.75;17.25;;;;;6.24;63.30;102888.63;4957965;28;45537;-62
2022/01/22 06:13:43;;;;;;;;;23.25;18.50;;;;;6.22;63.35;102885.22;4957718;28;46542;-62
2022/01/22 06:15:31;;;;;;;;;30.50;21.50;;;;;6.22;63.43;102883.44;4947089;28;45829;-62
2022/01/22 06:17:57;;;;;;;;;24.50;20.50;;;;;6.24;63.06;102886.84;4957837;28;45563;-63
2022/01/22 06:20:22;;;;;;;;;28.75;21.50;;;;;6.23;63.14;102892.13;4956882;28;67786;-63
2022/01/22 06:22:47;;;;;;;;;25.00;21.50;;;;;6.23;63.31;102887.75;4940109;28;47947;-64
2022/01/22 06:25:13;;;;;;;;;22.50;21.50;;;;;6.23;63.14;102886.91;4957525;28;45492;-63
2022/01/22 06:27:38;;;;;;;;;26.50;21.75;;;;;6.25;63.05;102885.09;4940236;28;45612;-64
2022/01/22 06:30:04;;;;;;;;;29.25;22.75;;;;;6.26;62.89;102884.22;4957520;28;47147;-62
2022/01/22 06:32:29;;;;;;;;;24.75;22.00;;;;;6.27;63.04;102882.44;4957270;28;46099;-63
2022/01/22 06:34:55;;;;;;;;;21.75;18.75;;;;;6.27;63.08;102888.53;4956129;28;72421;-63
2022/01/22 06:37:20;;;;;;;;;28.75;22.50;;;;;6.28;62.96;102879.78;4956597;28;65930;-64
2022/01/22 06:42:30;;;;;;;;;27.75;24.25;;;;;6.28;63.01;102885.00;4957298;28;45896;-64
2022/01/22 06:44:56;;;;;;;;;31.25;24.25;;;;;6.27;62.90;102893.75;4939947;28;45545;-64
2022/01/22 06:47:22;;;;;;;;;25.25;23.50;;;;;6.27;62.85;102891.13;4957315;28;45372;-63
2022/01/22 06:49:47;;;;;;;;;29.25;24.25;;;;;6.26;63.03;102892.03;4956501;28;60154;-63
2022/01/22 06:52:12;;;;;;;;;29.25;25.75;;;;;6.24;63.19;102899.91;4938826;28;67002;-61
2022/01/22 06:54:39;;;;;;;;;29.25;22.75;;;;;6.24;63.17;102901.69;4938820;28;68571;-63
2022/01/22 06:57:04;;;;;;;;;29.25;23.75;;;;;6.24;63.15;102904.28;4939369;28;45263;-62
2022/01/22 06:59:30;;;;;;;;;26.75;23.25;;;;;6.26;63.14;102907.69;4956487;28;63453;-63
2022/01/22 07:01:56;;;;;;;;;22.00;20.50;;;;;6.27;62.98;102903.31;4956010;28;70983;-62
2022/01/22 07:04:22;;;;;;;;;31.00;26.50;;;;;6.26;63.28;102904.22;4939322;28;45366;-63
2022/01/22 07:06:47;;;;;;;;;27.25;24.25;;;;;6.26;62.94;102902.47;4939531;28;55238;-63
2022/01/22 07:09:12;;;;;;;;;31.00;26.00;;;;;6.25;63.26;102903.38;4957217;28;45267;-62
2022/01/22 07:11:38;;;;;;;;;33.25;25.75;;;;;6.23;63.08;102897.34;4938901;28;67706;-63
2022/01/22 07:14:03;;;;;;;;;27.00;23.50;;;;;6.24;63.11;102899.06;4922699;28;69008;-62
2022/01/22 07:16:29;;;;;;;;;32.25;28.00;;;;;6.22;63.19;102896.50;4939693;28;45507;-63
2022/01/22 07:18:59;;;;;;;;;33.25;26.75;;;;;6.24;63.35;102899.06;4956949;28;45460;-65
2022/01/22 07:21:25;;;;;;;;;34.00;32.25;;;;;6.25;63.15;102906.00;4940288;28;46085;-63
2022/01/22 07:24:50;;;;;;;;;49.75;38.00;;;;;6.25;63.07;102906.00;4956679;28;45171;-62
2022/01/22 07:26:45;;;;;;;;;37.50;30.50;;;;;6.23;63.34;102902.56;4952023;28;45252;-64
2022/01/22 07:29:11;;;;;;;;;35.00;28.75;;;;;6.21;63.05;102894.78;4939722;28;45545;-62
2022/01/22 07:31:37;;;;;;;;;35.75;27.75;;;;;6.21;63.12;102901.78;4956573;28;45407;-63
2022/01/22 07:34:02;;;;;;;;;37.00;31.50;;;;;6.20;63.08;102900.91;4956756;28;45380;-63
2022/01/22 07:36:28;;;;;;;;;35.25;29.25;;;;;6.21;63.46;102912.22;4955941;28;65565;-61
2022/01/22 07:38:53;;;;;;;;;39.00;31.75;;;;;6.19;63.63;102916.63;4956014;28;65940;-61
2022/01/22 07:41:18;;;;;;;;;34.25;28.50;;;;;6.20;63.63;102913.13;4955711;28;75604;-63
2022/01/22 07:43:44;;;;;;;;;37.25;33.00;;;;;6.21;63.58;102914.81;4954903;28;73930;-62
2022/01/22 07:46:09;;;;;;;;;36.75;35.25;;;;;6.20;63.49;102913.97;4956120;28;45373;-62
2022/01/22 07:48:34;;;;;;;;;41.75;34.25;;;;;6.20;63.68;102919.19;4955642;28;47547;-64
2022/01/22 07:51:00;;;;;;;;;44.50;37.75;;;;;6.18;63.85;102918.38;4955198;28;45524;-61
2022/01/22 07:53:25;;;;;;;;;44.25;36.50;;;;;6.17;63.64;102924.50;4938255;28;48592;-61
2022/01/22 07:55:51;;;;;;;;;45.75;35.50;;;;;6.16;63.70;102928.00;4955951;28;45364;-61
2022/01/22 07:58:17;;;;;;;;;33.00;29.25;;;;;6.15;64.07;102923.69;4938559;28;45408;-63
2022/01/22 08:00:42;;;;;;;;;36.00;33.00;;;;;6.14;63.98;102926.34;4955819;28;46293;-63
2022/01/22 08:03:08;;;;;;;;;40.00;29.25;;;;;6.13;64.07;102917.66;4937984;28;45405;-63
2022/01/22 08:05:34;;;;;;;;;31.00;27.50;;;;;6.13;64.22;102922.03;4955430;28;45295;-62
2022/01/22 08:08:00;;;;;;;;;32.50;27.50;;;;;6.14;64.29;102931.56;4955467;28;45231;-63
2022/01/22 08:10:25;;;;;;;;;31.75;29.00;;;;;6.13;64.71;102935.09;4940327;28;62602;-62
2022/01/22 08:12:51;;;;;;;;;34.25;24.75;;;;;6.11;64.63;102929.91;4941318;28;45399;-63
2022/01/22 08:15:17;;;;;;;;;37.50;25.00;;;;;6.11;64.50;102934.28;4959560;28;45335;-62
2022/01/22 08:17:42;;;;;;;;;28.75;25.25;;;;;6.09;64.73;102937.78;4959550;28;45375;-63
2022/01/22 08:20:08;;;;;;;;;29.00;24.50;;;;;6.08;64.74;102938.69;4959161;28;45706;-62
2022/01/22 08:22:34;;;;;;;;;31.00;26.00;;;;;6.07;64.61;102936.16;4959194;28;45327;-63
2022/01/22 08:25:01;;;;;;;;;36.00;29.00;;;;;6.06;64.55;102937.03;4941428;28;67726;-63
2022/01/22 08:29:55;;;;;;;;;35.00;30.50;;;;;6.05;64.76;102940.56;4978244;28;46004;-62
2022/01/22 08:37:32;;;;;;;;;41.25;33.75;;;;;6.08;64.95;102946.53;4963850;28;45318;-64
2022/01/22 08:39:58;;;;;;;;;40.50;34.75;;;;;6.10;64.88;102943.84;4977357;28;66393;-61
2022/01/22 08:42:24;;;;;;;;;39.25;31.75;;;;;6.12;64.79;102946.44;4977213;28;70589;-62
2022/01/22 08:44:49;;;;;;;;;39.25;35.50;;;;;6.13;64.41;102953.38;4961287;28;45351;-62
2022/01/22 08:47:14;;;;;;;;;39.25;36.00;;;;;6.14;64.53;102955.06;4960933;28;45332;-63
2022/01/22 08:49:40;;;;;;;;;43.00;34.00;;;;;6.14;64.03;102963.75;4977341;28;72655;-62
2022/01/22 08:52:14;;;;;;;;;49.50;39.00;;;;;6.15;64.12;102956.78;4977977;28;45258;-64
2022/01/22 08:54:40;;;;;;;;;40.50;31.75;;;;;6.17;63.90;102961.03;4978253;28;45456;-62
2022/01/22 08:57:05;;;;;;;;;47.50;36.50;;;;;6.18;63.78;102962.75;4960929;28;45533;-65
2022/01/22 08:59:30;;;;;;;;;42.50;37.00;;;;;6.21;63.74;102967.03;4977769;28;45542;-64
2022/01/22 09:01:57;;;;;;;;;45.00;32.00;;;;;6.22;63.51;102968.75;4978126;28;45296;-63
2022/01/22 09:04:23;;;;;;;;;42.00;36.00;;;;;6.23;63.67;102973.06;4960878;28;45413;-63
2022/01/22 09:06:48;;;;;;;;;46.00;37.00;;;;;6.26;63.53;102970.38;4960401;28;45625;-62
2022/01/22 09:09:13;;;;;;;;;37.75;34.50;;;;;6.29;63.29;102972.00;4976930;28;72453;-63
2022/01/22 09:11:40;;;;;;;;;41.25;35.25;;;;;6.29;63.35;102970.28;4960088;28;57058;-62
2022/01/22 09:14:08;;;;;;;;;49.00;38.25;;;;;6.32;63.15;102977.13;4978239;28;45422;-63
2022/01/22 09:16:34;;;;;;;;;45.25;37.00;;;;;6.33;63.46;102971.88;4978053;28;45452;-64
2022/01/22 09:19:06;;;;;;;;;49.50;40.00;;;;;6.37;62.99;102983.06;4958878;28;46264;-63
2022/01/22 09:21:50;;;;;;;;;51.75;40.00;;;;;6.36;63.25;102976.97;4960773;28;45881;-63
2022/01/22 09:24:16;;;;;;;;;50.75;39.00;;;;;6.39;63.05;102982.13;4986595;28;45429;-64
2022/01/22 09:26:41;;;;;;;;;53.25;41.75;;;;;6.42;63.05;102982.91;4979185;28;45426;-64
2022/01/22 09:29:07;;;;;;;;;54.00;38.50;;;;;6.44;62.77;102983.72;4979696;28;45416;-63
2022/01/22 09:31:32;;;;;;;;;45.25;36.25;;;;;6.46;62.63;102981.91;4997147;28;45332;-62
2022/01/22 09:33:59;;;;;;;;;49.00;35.25;;;;;6.47;62.82;102981.03;4979187;28;62587;-61
2022/01/22 09:36:25;;;;;;;;;44.25;36.00;;;;;6.51;62.65;102993.06;4979878;28;45553;-63
2022/01/22 09:38:50;;;;;;;;;41.25;35.00;;;;;6.52;62.50;102995.66;4963632;28;45797;-63
2022/01/22 09:41:16;;;;;;;;;53.75;37.75;;;;;6.52;62.61;102998.28;4996871;28;59390;-63
2022/01/22 09:43:41;;;;;;;;;40.00;36.25;;;;;6.54;62.54;102992.97;4979772;28;45264;-62
2022/01/22 09:46:08;;;;;;;;;42.50;35.00;;;;;6.56;62.47;102999.00;4979022;28;45513;-63
2022/01/22 09:48:33;;;;;;;;;33.25;30.00;;;;;6.57;62.25;102994.66;4978722;28;47369;-62
2022/01/22 09:50:58;;;;;;;;;37.25;32.50;;;;;6.57;62.32;102989.44;4979215;28;45230;-63
2022/01/22 09:53:24;;;;;;;;;38.25;34.00;;;;;6.57;62.23;102990.28;4997274;28;45283;-64
2022/01/22 09:55:50;;;;;;;;;45.25;36.25;;;;;6.58;62.33;102997.22;4978696;28;61228;-62
2022/01/22 09:58:16;;;;;;;;;40.00;34.50;;;;;6.60;62.24;102994.56;4962079;28;48364;-62
2022/01/22 10:00:41;;;;;;;;;37.75;34.00;;;;;6.61;62.19;102994.50;4977421;28;45527;-59
2022/01/22 10:03:14;;;;;;;;;38.50;33.00;;;;;6.61;62.17;102994.50;4978343;28;52616;-63
2022/01/22 10:05:39;;;;;;;;;33.75;30.75;;;;;6.64;62.16;103002.25;4978891;28;45497;-63
2022/01/22 10:08:21;;;;;;;;;36.25;29.75;;;;;6.65;62.11;103003.06;4996121;28;57858;-62
2022/01/22 10:10:47;;;;;;;;;38.25;33.25;;;;;6.65;62.25;102998.72;4995354;28;45412;-63
2022/01/22 10:13:12;;;;;;;;;31.25;26.25;;;;;6.66;62.14;102997.81;4963251;28;45422;-63
2022/01/22 10:15:39;;;;;;;;;39.50;30.25;;;;;6.68;62.34;102995.16;4996165;28;62233;-63
2022/01/22 10:18:04;;;;;;;;;37.25;32.00;;;;;6.70;62.39;103001.19;4996621;28;46237;-63
2022/01/22 10:20:34;;;;;;;;;41.50;32.00;;;;;6.72;62.28;103014.22;4995678;28;71360;-64
2022/01/22 10:23:05;;;;;;;;;42.00;33.75;;;;;6.73;62.41;103008.91;4996969;28;45334;-61
2022/01/22 10:25:41;;;;;;;;;38.75;32.50;;;;;6.75;62.46;103006.28;4996575;28;45465;-63
2022/01/22 10:28:19;;;;;;;;;34.75;30.00;;;;;6.75;62.42;103009.72;4979771;28;46318;-63
2022/01/22 10:30:45;;;;;;;;;59.50;49.00;;;;;6.77;62.31;103018.38;4993222;28;45995;-62
2022/01/22 10:33:28;;;;;;;;;40.50;36.25;;;;;6.79;62.17;103024.41;4994254;28;45503;-62
2022/01/22 10:36:08;;;;;;;;;38.00;30.00;;;;;6.82;62.06;103020.84;4978793;28;45425;-63
2022/01/22 10:38:45;;;;;;;;;40.00;32.00;;;;;6.85;62.17;103025.97;4995863;28;45329;-62
2022/01/22 10:41:27;;;;;;;;;34.75;30.25;;;;;6.87;62.17;103026.78;4995552;28;45408;-61
2022/01/22 10:43:54;;;;;;;;;37.75;29.75;;;;;6.90;62.04;103023.19;4965648;28;45431;-62
2022/01/22 10:46:31;;;;;;;;;38.50;30.75;;;;;6.89;61.77;103004.03;4995909;28;45247;-63
2022/01/22 10:48:59;;;;;;;;;40.00;33.00;;;;;6.90;61.84;103008.34;4994758;28;46425;-63
2022/01/22 10:51:26;;;;;;;;;34.50;31.25;;;;;6.92;61.75;103006.56;4995655;28;45825;-64
2022/01/22 10:53:59;;;;;;;;;38.00;33.50;;;;;6.95;61.88;103000.38;4978636;28;45322;-62
2022/01/22 10:56:26;;;;;;;;;38.00;33.75;;;;;6.97;61.64;103004.63;4956810;28;45556;-62
2022/01/22 10:58:53;;;;;;;;;40.50;31.75;;;;;7.01;61.52;102999.31;4959318;28;46337;-63
2022/01/22 11:01:19;;;;;;;;;38.75;30.75;;;;;7.03;61.42;103005.34;4976600;28;45802;-62
2022/01/22 11:03:44;;;;;;;;;37.75;30.50;;;;;7.01;61.55;102994.94;4976649;28;45456;-64
2022/01/22 11:06:24;;;;;;;;;33.50;29.00;;;;;7.04;61.40;103004.44;4942923;28;45335;-63
2022/01/22 11:08:49;;;;;;;;;37.00;32.00;;;;;7.04;61.52;102996.59;4958972;28;46412;-64
2022/01/22 11:11:14;;;;;;;;;32.25;28.00;;;;;7.08;60.91;103000.81;4957963;28;72167;-63
2022/01/22 11:13:40;;;;;;;;;34.00;29.50;;;;;7.09;60.89;103005.13;4975765;28;58837;-62
2022/01/22 11:16:05;;;;;;;;;35.25;26.75;;;;;7.10;60.91;102999.00;4958388;28;58670;-62
2022/01/22 11:18:31;;;;;;;;;37.25;28.75;;;;;7.10;60.81;102992.03;4942020;28;62477;-62
2022/01/22 11:20:56;;;;;;;;;36.00;27.25;;;;;7.13;61.11;102993.66;4941504;28;70310;-62
2022/01/22 11:23:21;;;;;;;;;38.75;30.50;;;;;7.17;60.81;102995.28;4976304;28;45414;-61
2022/01/22 11:25:51;;;;;;;;;41.00;32.25;;;;;7.19;60.91;102995.22;4958074;28;64960;-62
2022/01/22 11:28:16;;;;;;;;;38.75;33.25;;;;;7.20;60.98;102989.94;4927230;28;45549;-64
2022/01/22 11:30:44;;;;;;;;;35.00;28.75;;;;;7.24;60.51;102991.53;4941719;28;71502;-63
2022/01/22 11:33:11;;;;;;;;;35.50;30.25;;;;;7.24;60.66;102986.31;4958644;28;45562;-63
2022/01/22 11:35:40;;;;;;;;;36.25;29.50;;;;;7.23;60.71;102984.59;4942531;28;45416;-63
2022/01/22 11:38:27;;;;;;;;;37.50;33.25;;;;;7.24;60.66;102985.44;4958315;28;45290;-64
2022/01/22 11:41:23;;;;;;;;;37.25;32.50;;;;;7.25;60.58;102977.56;4975816;28;45364;-63
2022/01/22 11:44:10;;;;;;;;;36.00;30.00;;;;;7.30;60.58;102973.94;4966219;28;45480;-62
2022/01/22 11:46:46;;;;;;;;;26.50;25.00;;;;;7.34;60.33;102980.75;4962531;28;45317;-63
2022/01/22 11:49:15;;;;;;;;;34.00;27.75;;;;;7.34;60.15;102968.53;4961847;28;46158;-63
2022/01/22 11:51:46;;;;;;;;;38.50;32.25;;;;;7.36;60.02;102968.50;4958197;28;45893;-62
2022/01/22 11:54:12;;;;;;;;;38.75;29.75;;;;;7.35;60.08;102972.84;4959547;28;45363;-62
2022/01/22 11:56:44;;;;;;;;;30.00;26.25;;;;;7.35;59.79;102977.25;4958336;28;45605;-62
2022/01/22 11:59:21;;;;;;;;;32.75;25.75;;;;;7.34;60.06;102971.13;4959234;28;46363;-62
2022/01/22 12:01:50;;;;;;;;;30.75;26.75;;;;;7.35;59.85;102970.22;4959626;28;45253;-63
2022/01/22 12:04:17;;;;;;;;;28.00;24.25;;;;;7.39;59.72;102978.84;4959420;28;45380;-63
2022/01/22 12:07:02;;;;;;;;;29.00;24.75;;;;;7.40;59.65;102965.69;4958517;28;45396;-63
2022/01/22 12:09:32;;;;;;;;;22.25;21.00;;;;;7.41;59.22;102963.94;4958980;28;46411;-61
2022/01/22 12:14:50;;;;;;;;;23.50;19.25;;;;;7.43;59.31;102956.88;4959330;28;45290;-64
2022/01/22 12:17:26;;;;;;;;;28.75;20.00;;;;;7.42;59.29;102950.81;4959429;28;45597;-63
2022/01/22 12:22:31;;;;;;;;;28.75;23.75;;;;;7.42;59.32;102955.16;4959007;28;45261;-63
2022/01/22 12:24:59;;;;;;;;;28.50;23.00;;;;;7.43;59.42;102949.91;4958201;28;45323;-63
2022/01/22 12:27:44;;;;;;;;;35.25;27.75;;;;;7.46;59.26;102943.69;4958076;28;45248;-62
2022/01/22 12:30:09;;;;;;;;;31.25;27.50;;;;;7.48;59.46;102947.09;4957700;28;49569;-62
2022/01/22 12:32:48;;;;;;;;;39.50;34.00;;;;;7.51;59.55;102943.53;4956944;28;66318;-63
2022/01/22 12:35:32;;;;;;;;;27.50;21.00;;;;;7.53;59.16;102939.09;4957954;28;45328;-62
2022/01/22 12:38:51;;;;;;;;;25.75;23.00;;;;;7.55;59.15;102932.03;4958796;28;45579;-64
2022/01/22 12:44:04;;;;;;;;;30.00;26.75;;;;;7.58;59.15;102942.41;4957883;28;45509;-63
2022/01/22 12:46:30;;;;;;;;;29.00;26.00;;;;;7.59;59.14;102933.63;4959401;28;45336;-63
2022/01/22 12:48:55;;;;;;;;;29.50;24.75;;;;;7.61;59.13;102934.44;4957339;28;45309;-64
2022/01/22 12:51:26;;;;;;;;;28.75;25.25;;;;;7.64;59.17;102930.84;4956383;28;67957;-63